Wyoming, Nebraska
Current Conditions -  °F | °C
As of 11:15 AM on Thursday 18 Dec 2014 (Local Time) from KAFK Reporting Station
Light Snow Light Snow  
Wind Chill: 29°   Ceiling: 800
Heat Index: 29°   Visibility: 4mi
Dew Point: 27°   Wind: 3mph
Humidity: 92%   Direction: 130°SE
Pressure: 30.25"   Gusts: NA
Location:  40.6534°N, 95.8738°W
Report Text: KAFK 181715Z AUTO 13003KT 4SM -SN BKN008 BKN031 OVC037 M01/M03 A3025 RMK AO2 T10151026
Loading
Personal Weather Stations






























Interactive Weather Map New forecast layout! Learn more

10-Day Weather Forecast

Advertisements
Track Severe Weather on mobile